sensor_id;sensor_type;location;lat;lon;timestamp;pressure;altitude;pressure_sealevel;temperature;humidity
53300;BME280;39187;48.476;8.310;2024-03-23T00:52:40;90645.78;;;10.42;95.73
53300;BME280;39187;48.476;8.310;2024-03-23T00:55:05;90645.69;;;10.45;95.09
53300;BME280;39187;48.476;8.310;2024-03-23T00:57:32;90646.00;;;10.60;94.85
53300;BME280;39187;48.476;8.310;2024-03-23T00:59:57;90635.03;;;10.45;95.83
53300;BME280;39187;48.476;8.310;2024-03-23T01:02:22;90633.03;;;10.62;94.78
53300;BME280;39187;48.476;8.310;2024-03-23T01:04:48;90627.59;;;10.53;95.80
53300;BME280;39187;48.476;8.310;2024-03-23T01:07:14;90631.63;;;10.58;95.34
53300;BME280;39187;48.476;8.310;2024-03-23T01:09:39;90618.97;;;10.49;95.76
53300;BME280;39187;48.476;8.310;2024-03-23T01:12:05;90617.38;;;10.52;96.19
53300;BME280;39187;48.476;8.310;2024-03-23T01:14:30;90609.81;;;10.37;97.11
53300;BME280;39187;48.476;8.310;2024-03-23T01:16:56;90609.38;;;10.52;96.69
53300;BME280;39187;48.476;8.310;2024-03-23T01:19:21;90604.06;;;10.52;96.67
53300;BME280;39187;48.476;8.310;2024-03-23T01:21:47;90614.41;;;10.50;97.49
53300;BME280;39187;48.476;8.310;2024-03-23T01:24:13;90608.66;;;10.26;99.67
53300;BME280;39187;48.476;8.310;2024-03-23T01:26:39;90602.56;;;10.51;97.71
53300;BME280;39187;48.476;8.310;2024-03-23T01:29:05;90605.91;;;10.42;98.28
53300;BME280;39187;48.476;8.310;2024-03-23T01:31:30;90601.59;;;10.57;97.58
53300;BME280;39187;48.476;8.310;2024-03-23T01:33:57;90598.94;;;10.57;96.84
53300;BME280;39187;48.476;8.310;2024-03-23T01:36:23;90586.50;;;10.67;96.99
53300;BME280;39187;48.476;8.310;2024-03-23T01:38:49;90598.09;;;10.60;97.65
53300;BME280;39187;48.476;8.310;2024-03-23T01:41:14;90584.06;;;10.60;98.03
53300;BME280;39187;48.476;8.310;2024-03-23T01:43:40;90585.13;;;10.62;97.01
53300;BME280;39187;48.476;8.310;2024-03-23T01:46:06;90575.53;;;10.65;97.27
53300;BME280;39187;48.476;8.310;2024-03-23T01:48:32;90571.06;;;10.62;97.06
53300;BME280;39187;48.476;8.310;2024-03-23T01:50:58;90576.50;;;10.45;99.20
53300;BME280;39187;48.476;8.310;2024-03-23T01:53:24;90573.63;;;10.53;98.89
53300;BME280;39187;48.476;8.310;2024-03-23T01:55:50;90580.66;;;10.34;100.00
53300;BME280;39187;48.476;8.310;2024-03-23T01:58:16;90572.47;;;10.41;99.83
53300;BME280;39187;48.476;8.310;2024-03-23T02:00:42;90561.63;;;10.35;100.00
53300;BME280;39187;48.476;8.310;2024-03-23T02:03:27;90555.56;;;10.48;99.03
53300;BME280;39187;48.476;8.310;2024-03-23T02:05:53;90554.19;;;10.43;99.54
53300;BME280;39187;48.476;8.310;2024-03-23T02:08:23;90554.69;;;10.51;98.96
53300;BME280;39187;48.476;8.310;2024-03-23T02:10:52;90553.94;;;10.37;100.00
53300;BME280;39187;48.476;8.310;2024-03-23T02:13:18;90551.19;;;10.54;99.13
53300;BME280;39187;48.476;8.310;2024-03-23T02:15:44;90550.03;;;10.42;100.00
53300;BME280;39187;48.476;8.310;2024-03-23T02:18:10;90533.69;;;10.65;98.18
53300;BME280;39187;48.476;8.310;2024-03-23T02:20:36;90537.38;;;10.21;100.00
53300;BME280;39187;48.476;8.310;2024-03-23T02:23:03;90531.41;;;10.42;100.00
53300;BME280;39187;48.476;8.310;2024-03-23T02:25:28;90526.84;;;10.42;100.00
53300;BME280;39187;48.476;8.310;2024-03-23T02:27:54;90523.22;;;10.36;100.00
53300;BME280;39187;48.476;8.310;2024-03-23T02:30:20;90532.25;;;10.39;100.00
53300;BME280;39187;48.476;8.310;2024-03-23T02:32:46;90535.44;;;10.47;100.00
53300;BME280;39187;48.476;8.310;2024-03-23T02:35:12;90535.13;;;10.32;100.00
53300;BME280;39187;48.476;8.310;2024-03-23T02:37:37;90520.56;;;10.36;100.00
53300;BME280;39187;48.476;8.310;2024-03-23T02:40:03;90522.56;;;10.32;100.00
53300;BME280;39187;48.476;8.310;2024-03-23T02:42:28;90527.47;;;10.34;100.00
53300;BME280;39187;48.476;8.310;2024-03-23T02:44:54;90529.28;;;10.24;100.00
53300;BME280;39187;48.476;8.310;2024-03-23T02:47:20;90520.34;;;10.18;100.00
53300;BME280;39187;48.476;8.310;2024-03-23T02:49:45;90513.66;;;9.88;100.00
53300;BME280;39187;48.476;8.310;2024-03-23T02:52:11;90514.72;;;10.16;100.00
53300;BME280;39187;48.476;8.310;2024-03-23T02:54:36;90518.00;;;9.82;100.00
53300;BME280;39187;48.476;8.310;2024-03-23T02:57:02;90513.63;;;10.01;100.00
53300;BME280;39187;48.476;8.310;2024-03-23T02:59:28;90508.00;;;9.99;100.00
53300;BME280;39187;48.476;8.310;2024-03-23T03:01:53;90510.25;;;10.00;100.00
53300;BME280;39187;48.476;8.310;2024-03-23T03:04:19;90498.66;;;9.82;100.00
53300;BME280;39187;48.476;8.310;2024-03-23T03:06:47;90485.47;;;9.91;100.00
53300;BME280;39187;48.476;8.310;2024-03-23T03:09:13;90484.31;;;9.79;100.00
53300;BME280;39187;48.476;8.310;2024-03-23T03:11:38;90475.16;;;9.55;100.00
53300;BME280;39187;48.476;8.310;2024-03-23T03:14:04;90471.44;;;9.52;100.00
53300;BME280;39187;48.476;8.310;2024-03-23T03:16:32;90471.44;;;9.40;100.00
53300;BME280;39187;48.476;8.310;2024-03-23T03:18:58;90460.50;;;9.50;100.00
53300;BME280;39187;48.476;8.310;2024-03-23T03:21:23;90464.53;;;9.55;100.00
53300;BME280;39187;48.476;8.310;2024-03-23T03:23:49;90454.06;;;9.22;100.00
53300;BME280;39187;48.476;8.310;2024-03-23T03:26:16;90451.91;;;9.59;100.00
53300;BME280;39187;48.476;8.310;2024-03-23T03:28:42;90450.06;;;9.56;100.00
53300;BME280;39187;48.476;8.310;2024-03-23T03:31:09;90426.06;;;9.21;100.00
53300;BME280;39187;48.476;8.310;2024-03-23T03:33:34;90431.88;;;9.16;100.00
53300;BME280;39187;48.476;8.310;2024-03-23T03:36:00;90435.72;;;9.28;100.00
53300;BME280;39187;48.476;8.310;2024-03-23T03:38:25;90428.38;;;9.19;100.00
53300;BME280;39187;48.476;8.310;2024-03-23T03:40:51;90420.00;;;9.34;100.00
53300;BME280;39187;48.476;8.310;2024-03-23T03:43:18;90428.28;;;9.23;100.00
53300;BME280;39187;48.476;8.310;2024-03-23T03:45:51;90426.69;;;9.38;100.00
53300;BME280;39187;48.476;8.310;2024-03-23T03:48:17;90421.94;;;9.46;100.00
53300;BME280;39187;48.476;8.310;2024-03-23T03:50:42;90410.66;;;9.54;100.00
53300;BME280;39187;48.476;8.310;2024-03-23T03:53:08;90401.44;;;9.46;100.00
53300;BME280;39187;48.476;8.310;2024-03-23T03:55:33;90400.88;;;9.39;100.00
53300;BME280;39187;48.476;8.310;2024-03-23T03:57:58;90390.06;;;9.46;100.00
53300;BME280;39187;48.476;8.310;2024-03-23T04:00:24;90377.41;;;9.12;100.00
53300;BME280;39187;48.476;8.310;2024-03-23T04:02:50;90368.16;;;9.42;100.00
53300;BME280;39187;48.476;8.310;2024-03-23T04:05:16;90357.53;;;9.54;100.00
53300;BME280;39187;48.476;8.310;2024-03-23T04:07:42;90359.88;;;9.52;100.00
53300;BME280;39187;48.476;8.310;2024-03-23T04:10:07;90369.75;;;9.64;100.00
53300;BME280;39187;48.476;8.310;2024-03-23T04:12:34;90390.03;;;9.58;100.00
53300;BME280;39187;48.476;8.310;2024-03-23T04:14:59;90404.34;;;9.10;100.00
53300;BME280;39187;48.476;8.310;2024-03-23T04:17:25;90417.28;;;8.83;100.00
53300;BME280;39187;48.476;8.310;2024-03-23T04:19:52;90394.72;;;8.62;100.00
53300;BME280;39187;48.476;8.310;2024-03-23T04:22:19;90375.81;;;8.60;100.00
53300;BME280;39187;48.476;8.310;2024-03-23T04:24:45;90374.38;;;8.30;100.00
53300;BME280;39187;48.476;8.310;2024-03-23T04:27:10;90347.91;;;8.43;100.00
53300;BME280;39187;48.476;8.310;2024-03-23T04:29:36;90374.25;;;8.34;100.00
53300;BME280;39187;48.476;8.310;2024-03-23T04:32:01;90380.34;;;8.18;100.00
53300;BME280;39187;48.476;8.310;2024-03-23T04:34:27;90390.50;;;8.20;100.00
53300;BME280;39187;48.476;8.310;2024-03-23T04:36:52;90410.25;;;8.02;100.00
53300;BME280;39187;48.476;8.310;2024-03-23T04:39:18;90405.19;;;8.08;100.00
53300;BME280;39187;48.476;8.310;2024-03-23T04:41:44;90394.28;;;7.90;100.00
53300;BME280;39187;48.476;8.310;2024-03-23T04:44:10;90377.66;;;7.57;100.00
53300;BME280;39187;48.476;8.310;2024-03-23T04:46:36;90373.94;;;7.71;100.00
53300;BME280;39187;48.476;8.310;2024-03-23T04:49:01;90381.56;;;7.52;100.00
53300;BME280;39187;48.476;8.310;2024-03-23T04:51:35;90383.38;;;7.39;100.00
53300;BME280;39187;48.476;8.310;2024-03-23T04:54:01;90397.97;;;7.11;100.00
53300;BME280;39187;48.476;8.310;2024-03-23T04:56:27;90386.81;;;7.04;100.00
53300;BME280;39187;48.476;8.310;2024-03-23T04:58:52;90398.69;;;6.96;100.00
53300;BME280;39187;48.476;8.310;2024-03-23T05:01:18;90408.16;;;6.77;100.00
53300;BME280;39187;48.476;8.310;2024-03-23T05:03:44;90392.50;;;6.66;100.00
53300;BME280;39187;48.476;8.310;2024-03-23T05:06:09;90424.44;;;6.56;100.00
53300;BME280;39187;48.476;8.310;2024-03-23T05:08:34;90428.22;;;6.55;100.00
53300;BME280;39187;48.476;8.310;2024-03-23T05:11:00;90430.06;;;6.58;100.00
53300;BME280;39187;48.476;8.310;2024-03-23T05:13:26;90454.38;;;6.29;100.00
53300;BME280;39187;48.476;8.310;2024-03-23T05:15:53;90424.94;;;6.08;100.00
53300;BME280;39187;48.476;8.310;2024-03-23T05:18:18;90455.19;;;6.26;100.00
53300;BME280;39187;48.476;8.310;2024-03-23T05:20:44;90456.94;;;6.13;100.00
53300;BME280;39187;48.476;8.310;2024-03-23T05:23:09;90459.03;;;6.22;100.00
53300;BME280;39187;48.476;8.310;2024-03-23T05:25:35;90455.47;;;6.09;100.00
53300;BME280;39187;48.476;8.310;2024-03-23T05:28:00;90463.22;;;5.96;100.00
53300;BME280;39187;48.476;8.310;2024-03-23T05:30:26;90455.53;;;5.82;100.00
53300;BME280;39187;48.476;8.310;2024-03-23T05:32:51;90446.63;;;5.95;100.00
53300;BME280;39187;48.476;8.310;2024-03-23T05:35:17;90442.41;;;6.01;100.00
53300;BME280;39187;48.476;8.310;2024-03-23T05:37:42;90457.09;;;6.02;100.00
53300;BME280;39187;48.476;8.310;2024-03-23T05:40:08;90458.03;;;5.92;100.00
53300;BME280;39187;48.476;8.310;2024-03-23T05:42:35;90461.63;;;6.02;100.00
53300;BME280;39187;48.476;8.310;2024-03-23T05:45:00;90461.56;;;6.06;100.00
53300;BME280;39187;48.476;8.310;2024-03-23T05:47:25;90471.75;;;5.80;100.00
53300;BME280;39187;48.476;8.310;2024-03-23T05:49:51;90478.94;;;5.80;100.00
53300;BME280;39187;48.476;8.310;2024-03-23T05:52:17;90461.31;;;5.73;100.00
53300;BME280;39187;48.476;8.310;2024-03-23T05:54:42;90473.69;;;5.53;100.00
53300;BME280;39187;48.476;8.310;2024-03-23T05:57:09;90473.78;;;5.46;100.00
53300;BME280;39187;48.476;8.310;2024-03-23T05:59:34;90483.00;;;5.34;100.00
53300;BME280;39187;48.476;8.310;2024-03-23T06:02:00;90491.66;;;5.35;100.00
53300;BME280;39187;48.476;8.310;2024-03-23T06:04:25;90500.59;;;5.14;100.00
53300;BME280;39187;48.476;8.310;2024-03-23T06:06:51;90501.63;;;5.23;100.00
53300;BME280;39187;48.476;8.310;2024-03-23T06:09:20;90497.22;;;5.13;100.00
53300;BME280;39187;48.476;8.310;2024-03-23T06:11:45;90501.50;;;5.04;100.00
53300;BME280;39187;48.476;8.310;2024-03-23T06:14:11;90508.34;;;4.98;100.00
53300;BME280;39187;48.476;8.310;2024-03-23T06:16:36;90503.38;;;5.03;100.00
53300;BME280;39187;48.476;8.310;2024-03-23T06:19:02;90520.28;;;5.06;100.00
53300;BME280;39187;48.476;8.310;2024-03-23T06:21:29;90517.28;;;4.73;100.00
53300;BME280;39187;48.476;8.310;2024-03-23T06:23:55;90521.22;;;4.58;100.00
53300;BME280;39187;48.476;8.310;2024-03-23T06:26:21;90526.16;;;4.87;100.00
53300;BME280;39187;48.476;8.310;2024-03-23T06:28:47;90529.97;;;4.86;100.00
53300;BME280;39187;48.476;8.310;2024-03-23T06:31:13;90533.97;;;4.97;100.00
53300;BME280;39187;48.476;8.310;2024-03-23T06:33:39;90524.53;;;4.66;100.00
53300;BME280;39187;48.476;8.310;2024-03-23T06:36:05;90546.56;;;4.82;100.00
53300;BME280;39187;48.476;8.310;2024-03-23T06:38:31;90540.34;;;4.66;100.00
53300;BME280;39187;48.476;8.310;2024-03-23T06:40:57;90524.66;;;4.52;100.00
53300;BME280;39187;48.476;8.310;2024-03-23T06:43:23;90535.16;;;4.55;100.00
53300;BME280;39187;48.476;8.310;2024-03-23T06:45:52;90539.34;;;4.49;100.00
53300;BME280;39187;48.476;8.310;2024-03-23T06:48:18;90549.94;;;4.46;100.00
53300;BME280;39187;48.476;8.310;2024-03-23T06:50:45;90555.28;;;4.38;100.00
53300;BME280;39187;48.476;8.310;2024-03-23T06:53:12;90548.25;;;4.25;100.00
53300;BME280;39187;48.476;8.310;2024-03-23T06:55:37;90554.16;;;4.39;100.00
53300;BME280;39187;48.476;8.310;2024-03-23T06:58:03;90556.50;;;4.27;100.00
53300;BME280;39187;48.476;8.310;2024-03-23T07:00:29;90555.75;;;4.26;100.00
53300;BME280;39187;48.476;8.310;2024-03-23T07:02:55;90576.56;;;4.14;100.00
53300;BME280;39187;48.476;8.310;2024-03-23T07:05:20;90570.50;;;4.17;100.00
53300;BME280;39187;48.476;8.310;2024-03-23T07:07:46;90577.03;;;4.01;100.00
53300;BME280;39187;48.476;8.310;2024-03-23T07:10:11;90592.09;;;4.01;100.00
53300;BME280;39187;48.476;8.310;2024-03-23T07:12:37;90568.84;;;3.89;100.00
53300;BME280;39187;48.476;8.310;2024-03-23T07:15:03;90576.75;;;3.89;100.00
53300;BME280;39187;48.476;8.310;2024-03-23T07:17:28;90589.16;;;3.88;100.00
53300;BME280;39187;48.476;8.310;2024-03-23T07:19:54;90591.13;;;3.74;100.00
53300;BME280;39187;48.476;8.310;2024-03-23T07:22:19;90605.06;;;3.71;100.00
53300;BME280;39187;48.476;8.310;2024-03-23T07:24:45;90611.78;;;3.79;100.00
53300;BME280;39187;48.476;8.310;2024-03-23T07:27:10;90610.31;;;3.74;100.00
53300;BME280;39187;48.476;8.310;2024-03-23T07:29:36;90619.41;;;3.62;100.00
53300;BME280;39187;48.476;8.310;2024-03-23T07:32:02;90623.53;;;3.60;100.00
53300;BME280;39187;48.476;8.310;2024-03-23T07:34:28;90633.59;;;3.76;100.00
53300;BME280;39187;48.476;8.310;2024-03-23T07:36:53;90639.25;;;3.74;100.00
53300;BME280;39187;48.476;8.310;2024-03-23T07:39:19;90649.91;;;3.46;100.00
53300;BME280;39187;48.476;8.310;2024-03-23T07:41:45;90650.66;;;3.46;100.00
53300;BME280;39187;48.476;8.310;2024-03-23T07:44:10;90652.47;;;3.60;100.00
53300;BME280;39187;48.476;8.310;2024-03-23T07:46:36;90655.38;;;3.80;100.00
53300;BME280;39187;48.476;8.310;2024-03-23T07:49:04;90650.59;;;3.64;100.00
53300;BME280;39187;48.476;8.310;2024-03-23T07:51:30;90658.88;;;3.62;100.00
53300;BME280;39187;48.476;8.310;2024-03-23T07:53:56;90668.56;;;3.73;100.00
53300;BME280;39187;48.476;8.310;2024-03-23T07:56:21;90682.41;;;3.87;100.00
53300;BME280;39187;48.476;8.310;2024-03-23T07:58:48;90695.31;;;3.60;100.00
53300;BME280;39187;48.476;8.310;2024-03-23T08:01:16;90706.88;;;3.84;100.00
53300;BME280;39187;48.476;8.310;2024-03-23T08:03:45;90689.66;;;3.66;100.00
53300;BME280;39187;48.476;8.310;2024-03-23T08:06:18;90706.53;;;3.72;100.00
53300;BME280;39187;48.476;8.310;2024-03-23T08:08:51;90707.69;;;3.71;100.00
53300;BME280;39187;48.476;8.310;2024-03-23T08:11:25;90695.28;;;3.71;100.00
53300;BME280;39187;48.476;8.310;2024-03-23T08:13:51;90710.03;;;3.51;100.00
53300;BME280;39187;48.476;8.310;2024-03-23T08:16:17;90702.06;;;3.69;100.00
53300;BME280;39187;48.476;8.310;2024-03-23T08:18:42;90699.09;;;3.63;100.00
53300;BME280;39187;48.476;8.310;2024-03-23T08:21:08;90712.63;;;3.58;100.00
53300;BME280;39187;48.476;8.310;2024-03-23T08:23:34;90708.41;;;3.78;100.00
53300;BME280;39187;48.476;8.310;2024-03-23T08:26:11;90730.66;;;3.63;100.00
53300;BME280;39187;48.476;8.310;2024-03-23T08:28:38;90747.94;;;3.71;100.00
53300;BME280;39187;48.476;8.310;2024-03-23T08:31:08;90734.78;;;3.60;100.00
53300;BME280;39187;48.476;8.310;2024-03-23T08:33:34;90753.91;;;3.82;100.00
53300;BME280;39187;48.476;8.310;2024-03-23T08:36:02;90743.06;;;3.59;100.00
53300;BME280;39187;48.476;8.310;2024-03-23T08:38:29;90760.00;;;3.47;100.00
53300;BME280;39187;48.476;8.310;2024-03-23T08:41:03;90773.19;;;3.44;100.00
53300;BME280;39187;48.476;8.310;2024-03-23T08:43:30;90778.06;;;3.35;100.00
53300;BME280;39187;48.476;8.310;2024-03-23T08:46:05;90799.09;;;3.49;100.00
53300;BME280;39187;48.476;8.310;2024-03-23T08:48:39;90793.88;;;3.38;100.00
53300;BME280;39187;48.476;8.310;2024-03-23T08:51:11;90821.66;;;3.43;100.00
53300;BME280;39187;48.476;8.310;2024-03-23T08:53:37;90812.97;;;3.63;100.00
53300;BME280;39187;48.476;8.310;2024-03-23T08:56:08;90825.31;;;3.84;100.00
53300;BME280;39187;48.476;8.310;2024-03-23T08:58:41;90823.47;;;3.67;100.00
53300;BME280;39187;48.476;8.310;2024-03-23T09:01:11;90826.88;;;3.71;100.00
53300;BME280;39187;48.476;8.310;2024-03-23T09:03:40;90831.75;;;3.66;100.00
53300;BME280;39187;48.476;8.310;2024-03-23T09:06:10;90827.56;;;3.86;100.00
53300;BME280;39187;48.476;8.310;2024-03-23T09:08:39;90834.69;;;3.92;100.00
53300;BME280;39187;48.476;8.310;2024-03-23T09:11:11;90837.38;;;3.82;100.00
53300;BME280;39187;48.476;8.310;2024-03-23T09:13:39;90833.59;;;3.86;100.00
53300;BME280;39187;48.476;8.310;2024-03-23T09:16:05;90834.72;;;3.85;100.00
53300;BME280;39187;48.476;8.310;2024-03-23T09:18:35;90818.91;;;3.85;100.00
53300;BME280;39187;48.476;8.310;2024-03-23T09:21:10;90822.59;;;4.13;100.00
53300;BME280;39187;48.476;8.310;2024-03-23T09:23:36;90823.84;;;3.83;100.00
53300;BME280;39187;48.476;8.310;2024-03-23T09:26:05;90826.81;;;3.96;100.00
53300;BME280;39187;48.476;8.310;2024-03-23T09:28:33;90830.22;;;3.82;100.00
53300;BME280;39187;48.476;8.310;2024-03-23T09:31:05;90822.31;;;3.86;100.00
53300;BME280;39187;48.476;8.310;2024-03-23T09:33:33;90834.72;;;3.85;100.00
53300;BME280;39187;48.476;8.310;2024-03-23T09:36:04;90837.72;;;3.94;100.00
53300;BME280;39187;48.476;8.310;2024-03-23T09:38:30;90838.03;;;4.03;100.00
53300;BME280;39187;48.476;8.310;2024-03-23T09:40:57;90822.94;;;4.18;100.00
53300;BME280;39187;48.476;8.310;2024-03-23T09:43:23;90822.53;;;4.27;100.00
53300;BME280;39187;48.476;8.310;2024-03-23T09:45:49;90821.03;;;4.26;100.00
53300;BME280;39187;48.476;8.310;2024-03-23T09:48:15;90814.28;;;4.18;100.00
53300;BME280;39187;48.476;8.310;2024-03-23T09:50:43;90811.22;;;4.30;100.00
53300;BME280;39187;48.476;8.310;2024-03-23T09:53:10;90808.47;;;4.58;100.00
53300;BME280;39187;48.476;8.310;2024-03-23T09:55:37;90815.97;;;4.60;100.00
53300;BME280;39187;48.476;8.310;2024-03-23T09:58:03;90815.09;;;4.80;100.00
53300;BME280;39187;48.476;8.310;2024-03-23T10:00:31;90802.16;;;5.00;100.00
53300;BME280;39187;48.476;8.310;2024-03-23T10:02:57;90822.44;;;5.10;100.00
53300;BME280;39187;48.476;8.310;2024-03-23T10:05:30;90811.78;;;5.24;100.00
53300;BME280;39187;48.476;8.310;2024-03-23T10:10:43;90822.75;;;5.16;100.00
53300;BME280;39187;48.476;8.310;2024-03-23T10:13:10;90814.84;;;5.12;100.00
53300;BME280;39187;48.476;8.310;2024-03-23T10:15:36;90817.50;;;4.57;100.00
53300;BME280;39187;48.476;8.310;2024-03-23T10:18:18;90830.28;;;4.59;100.00
53300;BME280;39187;48.476;8.310;2024-03-23T10:20:51;90847.81;;;4.10;100.00
53300;BME280;39187;48.476;8.310;2024-03-23T10:23:18;90856.56;;;3.61;100.00
53300;BME280;39187;48.476;8.310;2024-03-23T10:25:44;90852.41;;;3.88;100.00
53300;BME280;39187;48.476;8.310;2024-03-23T10:28:11;90830.22;;;3.79;100.00
53300;BME280;39187;48.476;8.310;2024-03-23T10:30:37;90833.59;;;3.86;100.00
53300;BME280;39187;48.476;8.310;2024-03-23T10:33:09;90835.13;;;3.73;100.00
53300;BME280;39187;48.476;8.310;2024-03-23T10:35:36;90842.31;;;3.44;100.00
53300;BME280;39187;48.476;8.310;2024-03-23T10:38:04;90838.94;;;3.47;100.00
53300;BME280;39187;48.476;8.310;2024-03-23T10:40:30;90849.47;;;3.19;100.00
53300;BME280;39187;48.476;8.310;2024-03-23T10:42:58;90832.56;;;3.06;100.00
53300;BME280;39187;48.476;8.310;2024-03-23T10:45:24;90849.06;;;2.89;100.00
53300;BME280;39187;48.476;8.310;2024-03-23T10:47:49;90834.06;;;2.68;100.00
53300;BME280;39187;48.476;8.310;2024-03-23T10:50:15;90850.16;;;2.63;100.00
53300;BME280;39187;48.476;8.310;2024-03-23T10:52:46;90847.53;;;2.49;100.00
53300;BME280;39187;48.476;8.310;2024-03-23T10:55:15;90855.34;;;2.34;100.00
53300;BME280;39187;48.476;8.310;2024-03-23T10:57:49;90871.19;;;2.56;100.00
53300;BME280;39187;48.476;8.310;2024-03-23T11:00:17;90872.97;;;2.37;100.00
53300;BME280;39187;48.476;8.310;2024-03-23T11:02:43;90871.91;;;2.42;100.00
53300;BME280;39187;48.476;8.310;2024-03-23T11:05:29;90866.97;;;2.33;100.00
53300;BME280;39187;48.476;8.310;2024-03-23T11:07:54;90869.19;;;2.21;100.00
53300;BME280;39187;48.476;8.310;2024-03-23T11:10:27;90864.00;;;2.38;100.00
53300;BME280;39187;48.476;8.310;2024-03-23T11:12:54;90866.56;;;2.21;100.00
53300;BME280;39187;48.476;8.310;2024-03-23T11:15:20;90866.63;;;2.38;100.00
53300;BME280;39187;48.476;8.310;2024-03-23T11:18:07;90872.28;;;2.48;100.00
53300;BME280;39187;48.476;8.310;2024-03-23T11:20:37;90863.28;;;2.63;100.00
53300;BME280;39187;48.476;8.310;2024-03-23T11:23:04;90867.06;;;2.65;100.00
53300;BME280;39187;48.476;8.310;2024-03-23T11:25:29;90867.84;;;2.73;100.00
53300;BME280;39187;48.476;8.310;2024-03-23T11:27:56;90863.31;;;2.77;100.00
53300;BME280;39187;48.476;8.310;2024-03-23T11:30:27;90864.09;;;2.81;100.00
53300;BME280;39187;48.476;8.310;2024-03-23T11:32:56;90876.47;;;2.77;100.00
53300;BME280;39187;48.476;8.310;2024-03-23T11:35:29;90866.28;;;2.51;100.00
53300;BME280;39187;48.476;8.310;2024-03-23T11:40:30;90868.97;;;2.68;100.00
53300;BME280;39187;48.476;8.310;2024-03-23T11:43:01;90873.41;;;2.47;100.00
53300;BME280;39187;48.476;8.310;2024-03-23T11:45:27;90871.56;;;2.61;100.00
53300;BME280;39187;48.476;8.310;2024-03-23T11:48:08;90859.84;;;2.34;100.00
53300;BME280;39187;48.476;8.310;2024-03-23T11:50:35;90864.34;;;2.30;100.00
53300;BME280;39187;48.476;8.310;2024-03-23T11:53:21;90867.03;;;2.58;100.00
53300;BME280;39187;48.476;8.310;2024-03-23T11:55:49;90857.28;;;2.48;100.00
53300;BME280;39187;48.476;8.310;2024-03-23T11:58:16;90864.81;;;2.60;100.00
53300;BME280;39187;48.476;8.310;2024-03-23T12:00:43;90859.91;;;2.59;100.00
53300;BME280;39187;48.476;8.310;2024-03-23T12:03:14;90861.81;;;2.69;100.00
53300;BME280;39187;48.476;8.310;2024-03-23T12:05:41;90873.75;;;2.45;100.00
53300;BME280;39187;48.476;8.310;2024-03-23T12:08:21;90867.38;;;2.35;100.00
53300;BME280;39187;48.476;8.310;2024-03-23T12:10:48;90871.53;;;2.51;100.00
53300;BME280;39187;48.476;8.310;2024-03-23T12:13:21;90870.06;;;2.60;100.00
53300;BME280;39187;48.476;8.310;2024-03-23T12:15:50;90868.16;;;2.50;100.00
53300;BME280;39187;48.476;8.310;2024-03-23T12:18:17;90861.78;;;2.55;100.00
53300;BME280;39187;48.476;8.310;2024-03-23T12:20:42;90862.56;;;2.69;100.00
53300;BME280;39187;48.476;8.310;2024-03-23T12:23:10;90853.22;;;2.86;100.00
53300;BME280;39187;48.476;8.310;2024-03-23T12:25:37;90845.69;;;2.74;100.00
53300;BME280;39187;48.476;8.310;2024-03-23T12:28:03;90835.94;;;2.92;100.00
53300;BME280;39187;48.476;8.310;2024-03-23T12:30:40;90835.19;;;2.92;100.00
53300;BME280;39187;48.476;8.310;2024-03-23T12:33:06;90828.44;;;2.87;100.00
53300;BME280;39187;48.476;8.310;2024-03-23T12:35:32;90820.56;;;3.05;100.00
53300;BME280;39187;48.476;8.310;2024-03-23T12:37:57;90840.81;;;2.97;100.00
53300;BME280;39187;48.476;8.310;2024-03-23T12:40:23;90831.41;;;2.82;100.00
53300;BME280;39187;48.476;8.310;2024-03-23T12:42:48;90836.72;;;3.00;100.00
53300;BME280;39187;48.476;8.310;2024-03-23T12:45:14;90826.16;;;2.78;100.00
53300;BME280;39187;48.476;8.310;2024-03-23T12:47:40;90828.41;;;2.62;100.00
53300;BME280;39187;48.476;8.310;2024-03-23T12:50:06;90829.19;;;2.80;100.00
53300;BME280;39187;48.476;8.310;2024-03-23T12:52:32;90836.31;;;2.80;100.00
53300;BME280;39187;48.476;8.310;2024-03-23T12:54:58;90836.31;;;2.87;100.00
53300;BME280;39187;48.476;8.310;2024-03-23T12:57:25;90840.81;;;2.79;100.00
53300;BME280;39187;48.476;8.310;2024-03-23T12:59:52;90821.19;;;2.20;100.00
53300;BME280;39187;48.476;8.310;2024-03-23T13:02:21;90810.38;;;2.57;100.00
53300;BME280;39187;48.476;8.310;2024-03-23T13:04:50;90802.88;;;2.63;100.00
53300;BME280;39187;48.476;8.310;2024-03-23T13:07:19;90805.16;;;2.68;100.00
53300;BME280;39187;48.476;8.310;2024-03-23T13:09:45;90787.88;;;2.60;100.00
53300;BME280;39187;48.476;8.310;2024-03-23T13:12:11;90788.59;;;2.57;100.00
53300;BME280;39187;48.476;8.310;2024-03-23T13:14:40;90786.00;;;2.78;100.00
53300;BME280;39187;48.476;8.310;2024-03-23T13:17:06;90793.09;;;2.56;100.00
53300;BME280;39187;48.476;8.310;2024-03-23T13:19:32;90795.38;;;2.75;100.00
53300;BME280;39187;48.476;8.310;2024-03-23T13:21:59;90801.75;;;2.50;100.00
53300;BME280;39187;48.476;8.310;2024-03-23T13:24:25;90787.81;;;2.31;100.00
53300;BME280;39187;48.476;8.310;2024-03-23T13:26:52;90801.03;;;2.67;100.00
53300;BME280;39187;48.476;8.310;2024-03-23T13:29:21;90795.69;;;2.31;100.00
53300;BME280;39187;48.476;8.310;2024-03-23T13:31:48;90791.25;;;2.64;100.00
53300;BME280;39187;48.476;8.310;2024-03-23T13:34:14;90792.38;;;2.77;100.00
53300;BME280;39187;48.476;8.310;2024-03-23T13:36:47;90787.50;;;2.75;100.00
53300;BME280;39187;48.476;8.310;2024-03-23T13:39:13;90795.41;;;2.93;100.00
53300;BME280;39187;48.476;8.310;2024-03-23T13:41:44;90782.63;;;3.16;100.00
53300;BME280;39187;48.476;8.310;2024-03-23T13:44:13;90773.59;;;3.21;100.00
53300;BME280;39187;48.476;8.310;2024-03-23T13:46:42;90756.69;;;3.18;100.00
53300;BME280;39187;48.476;8.310;2024-03-23T13:49:28;90734.53;;;3.19;100.00
53300;BME280;39187;48.476;8.310;2024-03-23T13:51:55;90734.13;;;3.32;100.00
53300;BME280;39187;48.476;8.310;2024-03-23T13:54:22;90734.16;;;3.14;100.00
53300;BME280;39187;48.476;8.310;2024-03-23T13:56:52;90746.53;;;3.38;100.00